KAWO2: Kaw Lake

Data processed at Tue May 21 2019 23:50


All information presented herein is the property of the government of the United States of America and may be revised or deleted at any time without prior notice.
Dissemination of this information without the expressed written consent of the Public Affairs Office, Tulsa District U.S. Army Corps of Engineers is strictly prohibited.
These data are gathered electronically and, as presented, have not undergone any form of quality control. These data are not guaranteed to be valid or correct.
Go to home page.
Go to station list.
Go to home page.

Upstream stations:

Downstream station:
Previous Day
Next Day
Current Day
    
SHEF ID:       KAWO2     Kaw Lake
STATION TYPE:  RESERVOIR
Flood Pool:  Bottom =  1010.00, Top =  1044.50

               PRECIP     STAGE  RIV-FLOW ELEVATION   STORAGE   TW-ELEV    INFLOW   RELEASE  AIR-TEMP  WIND-DIRWIND-SPEED REL-HUMID SOLAR-RAD   VOLTAGE  BAT-LOAD
                   in        ft       cfs        ft     ac-ft        ft       cfs       cfs         F       deg       mph         %      W/m2      volt      volt
              Ccp-Rev   Ccp-Rev   Ccp-Rev   Ccp-Rev   Ccp-Rev   Ccp-Rev  Rev-Regi  Rev-Regi   Ccp-Rev   Ccp-Rev   Ccp-Rev   Ccp-Rev   Ccp-Rev   Ccp-Rev   Ccp-Rev
(US/Central)
05/21 00:00      0.07      8.76     19555   1035.09    934418      ----     99885     19555     54.72     81.70     15.90    100.29      0.00     12.55     12.33
05/21 01:00      0.20      8.60     18630   1035.28    940298      ----     91720     18630     54.97     99.60     16.70    100.29      0.00     12.54     12.33
05/21 02:00      0.07      8.49     18011   1035.56    948964      ----     97003     18011     55.98    100.80     23.00    100.29      0.00     12.55     12.33
05/21 03:00      0.13      8.45     17789   1035.69    952987      ----    107166     17789     57.61    105.10     22.50    100.30      0.00     12.54     12.33
05/21 04:00      0.03      8.44     17733   1035.94    960724      ----    117410     17733     59.22     85.00     21.30    100.17      0.00     12.55     12.33
05/21 05:00      0.97      8.52     18178   1036.28    971404      ----    118249     18178     59.95    157.10     12.80     99.47      0.00     12.55     12.33
05/21 06:00      0.16      8.66     18974   1036.60    981487      ----    136307     18974     59.79    127.00      4.70    100.30      0.00     12.55     12.33
05/21 07:00      0.09      8.81     19850   1036.88    990310      ----    142444     19850     60.53     23.50     10.30    100.30      0.00     12.55     12.33
05/21 08:00      0.06      8.86     20147   1037.23   1001568      ----    142970     20147     60.66     59.40     10.10    100.30      0.00     12.55     12.33
05/21 09:00      0.09      8.85     20087   1037.54   1011646      ----    141766     20087     60.67     96.20     16.60    100.30      3.10     12.60     12.41
05/21 10:00      0.00      8.82     19909   1037.87   1022375      ----    147736     19909     61.38    126.00      8.80    100.30     50.30     12.73     12.41
05/21 11:00      0.00     10.22     27689   1038.15   1031529      ----    145669     27689     62.53    154.80     13.70     99.22     69.00     12.85     12.49
05/21 12:00      0.00     10.62     29947   1038.47   1042041      ----    144601     29947     62.89    160.10     15.60     97.56    126.90     13.14     12.65
05/21 13:00      0.00     10.85     31287   1038.76   1051568      ----    144848     31287     64.47    168.70     17.10     94.07    413.90     14.06     12.97
05/21 14:00      0.00     12.82     43154   1039.01   1059791      ----    145185     43154     69.80    184.40     20.50     78.74    886.30     14.20     13.44
05/21 15:00      0.00     13.30     45640   1039.27   1068605      ----    145463     45640     72.99    202.50     27.80     47.83    976.90     13.79     13.29
05/21 16:00      0.00     13.44     46374   1039.49   1076063      ----    143883     46374     73.63    213.40     28.80     37.05    453.30     13.36     13.44
05/21 17:00      0.00     15.04     55140   1039.75   1084877      ----    147770     55140     73.76    213.30     27.70     36.69     43.40     13.56     13.13
05/21 18:00      0.00     15.31     56764   1039.95   1091657      ----    145735     56764     73.92    200.70     26.20     37.53    243.00     13.18     13.29
05/21 19:00      0.00     15.41     57371   1040.19   1099846      ----    148640     57371     73.81    199.20     24.20     35.73    223.40     13.02     12.97
05/21 20:00      0.00     16.98     67215   1040.38   1106340      ----    145099     67215     72.07    195.20     20.50     38.46     64.40     12.87     12.81
05/21 21:00      0.00     17.24     68903   1040.58   1113176      ----    144732     68903     69.19    201.00     15.30     44.81      0.00     12.81     12.65
05/21 22:00      0.00     17.39     69884   1040.75   1118987      ----    141441     69884     65.43    201.40      8.80     56.29      0.00     12.78     12.65
05/21 23:00      0.00     17.42     70081   1040.91   1124456      ----    139788     70081     62.85    190.10      4.60     63.57      0.00     12.75     12.57